createdAt,value
2022-12-19T00:00:14.749Z,89.45
2022-12-19T00:01:26.856Z,89.43
2022-12-19T00:02:32.733Z,85.41
2022-12-19T00:03:39.463Z,87.59
2022-12-19T00:04:42.853Z,85.55
2022-12-19T00:05:48.876Z,85.12
2022-12-19T00:06:52.165Z,85.84
2022-12-19T00:07:59.034Z,83.43
2022-12-19T00:09:06.853Z,84.75
2022-12-19T00:10:13.534Z,87.66
2022-12-19T00:11:18.952Z,88.04
2022-12-19T00:12:24.804Z,86.59
2022-12-19T00:13:35.288Z,85.16
2022-12-19T00:14:50.735Z,85.97
2022-12-19T00:15:54.545Z,86.38
2022-12-19T00:17:00.431Z,87.66
2022-12-19T00:18:05.677Z,90.10
2022-12-19T00:19:15.784Z,90.23
2022-12-19T00:20:19.471Z,87.49
2022-12-19T00:21:28.414Z,88.15
2022-12-19T00:22:31.757Z,89.55
2022-12-19T00:23:38.839Z,89.22
2022-12-19T00:24:42.915Z,89.71
2022-12-19T00:25:48.847Z,89.87
2022-12-19T00:26:52.131Z,92.63
2022-12-19T00:27:58.639Z,90.58
2022-12-19T00:29:11.164Z,89.87
2022-12-19T00:30:24.115Z,93.11
2022-12-19T00:31:31.630Z,94.52
2022-12-19T00:32:37.764Z,92.24
2022-12-19T00:33:43.401Z,89.92
2022-12-19T00:34:51.000Z,94.48
2022-12-19T00:35:59.098Z,93.67
2022-12-19T00:37:05.011Z,93.39
2022-12-19T00:38:08.417Z,92.43
2022-12-19T00:39:14.698Z,94.01
2022-12-19T00:40:18.427Z,97.24
2022-12-19T00:41:28.398Z,94.13
2022-12-19T00:42:32.338Z,93.32
2022-12-19T00:43:38.532Z,93.94
2022-12-19T00:44:42.002Z,91.49
2022-12-19T00:45:50.666Z,94.40
2022-12-19T00:46:54.907Z,97.11
2022-12-19T00:48:00.801Z,91.95
2022-12-19T00:49:06.535Z,88.64
2022-12-19T00:50:13.801Z,90.84
2022-12-19T00:51:21.335Z,92.42
2022-12-19T00:52:28.092Z,91.24
2022-12-19T00:53:34.827Z,92.05
2022-12-19T00:54:42.096Z,91.94
2022-12-19T00:55:45.337Z,90.45
2022-12-19T00:56:51.351Z,88.87
2022-12-19T00:57:55.550Z,87.62
2022-12-19T00:59:05.884Z,88.08
2022-12-19T01:00:12.099Z,88.58
2022-12-19T01:01:24.652Z,88.54
2022-12-19T01:02:30.761Z,87.65
2022-12-19T01:03:35.239Z,88.28
2022-12-19T01:04:41.962Z,90.90
2022-12-19T01:05:51.027Z,87.53
2022-12-19T01:07:01.758Z,90.07
2022-12-19T01:08:09.208Z,91.54
2022-12-19T01:09:16.514Z,88.84
2022-12-19T01:10:19.966Z,86.47
2022-12-19T01:11:46.694Z,86.68
2022-12-19T01:12:49.973Z,84.98
2022-12-19T01:13:54.684Z,86.16
2022-12-19T01:15:04.899Z,86.75
2022-12-19T01:16:15.168Z,87.74
2022-12-19T01:17:21.157Z,85.34
2022-12-19T01:18:27.096Z,85.24
2022-12-19T01:19:30.566Z,83.43
2022-12-19T01:20:37.287Z,86.40
2022-12-19T01:21:41.033Z,84.25
2022-12-19T01:22:47.877Z,83.78
2022-12-19T01:23:51.187Z,84.23
2022-12-19T01:24:57.091Z,82.96
2022-12-19T01:26:01.357Z,85.14
2022-12-19T01:27:07.494Z,84.86
2022-12-19T01:28:18.261Z,85.99
2022-12-19T01:29:22.275Z,85.35
2022-12-19T01:30:29.256Z,87.09
2022-12-19T01:31:35.108Z,87.29
2022-12-19T01:32:44.706Z,88.41
2022-12-19T01:33:48.120Z,86.38
2022-12-19T01:34:56.404Z,86.54
2022-12-19T01:36:02.033Z,83.78
2022-12-19T01:37:08.877Z,86.67
2022-12-19T01:38:15.615Z,84.30
2022-12-19T01:39:21.525Z,83.58
2022-12-19T01:40:30.247Z,82.64
2022-12-19T01:41:33.869Z,83.24
2022-12-19T01:42:41.210Z,84.34
2022-12-19T01:44:02.075Z,84.47
2022-12-19T01:45:34.077Z,85.18
2022-12-19T01:46:47.649Z,88.37
2022-12-19T01:48:07.739Z,85.35
2022-12-19T01:49:25.278Z,84.44
2022-12-19T01:50:38.081Z,83.14
2022-12-19T01:51:54.375Z,83.92
2022-12-19T01:53:01.421Z,82.47
2022-12-19T01:54:15.535Z,86.81
2022-12-19T01:55:22.082Z,86.06
2022-12-19T01:56:37.429Z,86.97
2022-12-19T01:57:40.876Z,85.57
2022-12-19T01:58:49.000Z,88.22
2022-12-19T02:00:00.198Z,86.89
2022-12-19T02:01:06.666Z,90.17
2022-12-19T02:02:19.452Z,86.95
2022-12-19T02:03:32.709Z,85.68
2022-12-19T02:04:37.485Z,89.82
2022-12-19T02:05:44.617Z,87.08
2022-12-19T02:06:56.484Z,89.51
2022-12-19T02:08:05.985Z,91.34
2022-12-19T02:09:10.197Z,89.22
2022-12-19T02:10:17.025Z,90.11
2022-12-19T02:11:20.504Z,90.86
2022-12-19T02:12:33.246Z,91.20
2022-12-19T02:13:36.835Z,91.22
2022-12-19T02:14:44.623Z,92.05
2022-12-19T02:16:05.927Z,97.05
2022-12-19T02:17:27.951Z,92.27
2022-12-19T02:18:52.181Z,92.42
2022-12-19T02:20:48.445Z,93.40
2022-12-19T02:22:12.712Z,94.44
2022-12-19T02:24:10.984Z,95.04
2022-12-19T02:26:03.655Z,91.33
2022-12-19T02:28:01.083Z,87.39
2022-12-19T02:29:43.997Z,89.50
2022-12-19T02:31:17.499Z,92.98
2022-12-19T02:32:36.302Z,89.59
2022-12-19T02:33:49.557Z,89.78
2022-12-19T02:35:11.279Z,90.89
2022-12-19T02:36:28.580Z,90.06
2022-12-19T02:37:44.831Z,89.37
2022-12-19T02:39:02.400Z,88.75
2022-12-19T02:40:18.550Z,90.08
2022-12-19T02:41:43.519Z,88.40
2022-12-19T02:43:00.968Z,89.18
2022-12-19T02:44:08.865Z,88.25
2022-12-19T02:45:28.337Z,88.29
2022-12-19T02:46:37.869Z,86.53
2022-12-19T02:47:43.396Z,87.40
2022-12-19T02:48:51.635Z,85.91
2022-12-19T02:49:55.084Z,85.06
2022-12-19T02:51:01.421Z,85.65
2022-12-19T02:52:13.303Z,84.12
2022-12-19T02:53:23.805Z,85.49
2022-12-19T02:54:33.031Z,85.93
2022-12-19T02:55:51.746Z,83.72
2022-12-19T02:57:09.174Z,84.16
2022-12-19T02:58:46.684Z,86.63
2022-12-19T03:00:06.768Z,85.28
2022-12-19T03:01:36.635Z,85.09
2022-12-19T03:03:01.183Z,85.00
2022-12-19T03:04:24.343Z,84.56
2022-12-19T03:05:45.662Z,82.22
2022-12-19T03:07:02.101Z,87.40
2022-12-19T03:08:23.964Z,85.00
2022-12-19T03:09:43.952Z,84.48
2022-12-19T03:11:00.758Z,83.79
2022-12-19T03:12:18.362Z,81.48
2022-12-19T03:13:30.584Z,83.45
2022-12-19T03:14:40.293Z,83.93
2022-12-19T03:15:45.448Z,84.04
2022-12-19T03:16:54.396Z,84.33
2022-12-19T03:18:02.883Z,86.64
2022-12-19T03:19:16.535Z,87.42
2022-12-19T03:20:37.353Z,84.48
2022-12-19T03:21:47.783Z,83.34
2022-12-19T03:22:51.866Z,82.30
2022-12-19T03:24:01.408Z,83.69
2022-12-19T03:25:05.608Z,86.77
2022-12-19T03:26:20.757Z,87.58
2022-12-19T03:27:34.285Z,83.44
2022-12-19T03:28:50.981Z,83.99
2022-12-19T03:30:06.849Z,83.99
2022-12-19T03:31:15.852Z,87.28
2022-12-19T03:32:25.601Z,84.10
2022-12-19T03:33:35.074Z,84.86
2022-12-19T03:34:50.910Z,84.43
2022-12-19T03:36:04.610Z,88.77
2022-12-19T03:37:20.351Z,87.09
2022-12-19T03:38:24.476Z,86.28
2022-12-19T03:39:35.202Z,84.23
2022-12-19T03:40:46.465Z,83.43
2022-12-19T03:42:07.867Z,86.59
2022-12-19T03:43:21.665Z,88.54
2022-12-19T03:44:34.849Z,88.42
2022-12-19T03:45:56.599Z,85.77
2022-12-19T03:47:15.120Z,87.70
2022-12-19T03:48:30.970Z,87.09
2022-12-19T03:49:38.253Z,88.68
2022-12-19T03:51:00.375Z,87.84
2022-12-19T03:52:24.855Z,88.69
2022-12-19T03:53:50.275Z,87.92
2022-12-19T03:55:06.326Z,86.55
2022-12-19T03:56:25.883Z,89.54
2022-12-19T03:57:40.203Z,89.08
2022-12-19T03:58:56.247Z,87.20
2022-12-19T04:00:08.166Z,88.06
2022-12-19T04:01:22.650Z,88.24
2022-12-19T04:02:29.365Z,88.73
2022-12-19T04:03:37.020Z,88.89
2022-12-19T04:04:53.677Z,87.29
2022-12-19T04:06:02.127Z,85.54
2022-12-19T04:07:12.019Z,87.66
2022-12-19T04:08:17.922Z,85.81
2022-12-19T04:09:27.431Z,84.80
2022-12-19T04:10:36.153Z,88.54
2022-12-19T04:11:52.588Z,87.15
2022-12-19T04:13:05.309Z,85.01
2022-12-19T04:14:20.124Z,86.24
2022-12-19T04:15:45.255Z,86.56
2022-12-19T04:16:59.820Z,87.79
2022-12-19T04:18:12.845Z,88.54
2022-12-19T04:19:29.614Z,85.89
2022-12-19T04:20:48.645Z,85.91
2022-12-19T04:22:05.000Z,87.94
2022-12-19T04:23:24.535Z,88.55
2022-12-19T04:24:36.647Z,88.33
2022-12-19T04:25:52.281Z,87.52
2022-12-19T04:27:02.564Z,89.18
2022-12-19T04:28:16.779Z,88.56
2022-12-19T04:29:21.570Z,89.32
2022-12-19T04:30:27.458Z,85.94
2022-12-19T04:31:32.666Z,88.84
2022-12-19T04:32:43.143Z,88.01
2022-12-19T04:33:46.725Z,93.39
2022-12-19T04:34:52.616Z,95.58
2022-12-19T04:35:58.857Z,96.56
2022-12-19T04:37:06.754Z,96.40
2022-12-19T04:38:10.230Z,99.28
2022-12-19T04:39:16.271Z,104.05
2022-12-19T04:40:19.713Z,104.34
2022-12-19T04:41:25.613Z,101.69
2022-12-19T04:42:29.856Z,110.32
2022-12-19T04:43:36.063Z,111.60
2022-12-19T04:44:39.367Z,105.32
2022-12-19T04:45:45.552Z,97.24
2022-12-19T04:46:49.370Z,97.62
2022-12-19T04:47:56.067Z,99.10
2022-12-19T04:48:59.390Z,99.00
2022-12-19T04:50:05.557Z,104.45
2022-12-19T04:51:11.477Z,103.60
2022-12-19T04:52:17.402Z,103.24
2022-12-19T04:53:21.524Z,103.78
2022-12-19T04:54:27.380Z,105.81
2022-12-19T04:55:30.927Z,106.36
2022-12-19T04:56:36.829Z,109.35
2022-12-19T04:57:40.078Z,108.06
2022-12-19T04:58:46.805Z,108.31
2022-12-19T04:59:50.444Z,108.14
2022-12-19T05:00:56.310Z,117.57
2022-12-19T05:02:00.735Z,126.09
2022-12-19T05:03:06.881Z,126.26
2022-12-19T05:04:11.193Z,126.15
2022-12-19T05:05:18.412Z,122.90
2022-12-19T05:06:24.459Z,119.10
2022-12-19T05:07:30.479Z,115.37
2022-12-19T05:08:34.461Z,114.41
2022-12-19T05:09:41.327Z,114.21
2022-12-19T05:10:44.593Z,112.12
2022-12-19T05:11:50.987Z,112.23
2022-12-19T05:12:55.580Z,123.71
2022-12-19T05:14:02.406Z,127.72
2022-12-19T05:15:08.848Z,114.63
2022-12-19T05:16:16.386Z,110.53
2022-12-19T05:17:19.743Z,108.80
2022-12-19T05:18:25.815Z,105.26
2022-12-19T05:19:32.315Z,100.82
2022-12-19T05:20:38.117Z,99.40
2022-12-19T05:21:46.867Z,102.99
2022-12-19T05:22:50.186Z,103.61
2022-12-19T05:23:56.104Z,108.63
2022-12-19T05:24:59.389Z,102.86
2022-12-19T05:26:08.795Z,101.26
2022-12-19T05:27:12.098Z,100.05
2022-12-19T05:28:19.697Z,103.78
2022-12-19T05:29:23.337Z,101.68
2022-12-19T05:30:29.250Z,101.74
2022-12-19T05:31:33.507Z,97.31
2022-12-19T05:32:39.444Z,99.85
2022-12-19T05:33:43.947Z,101.36
2022-12-19T05:34:50.004Z,102.82
2022-12-19T05:35:53.318Z,104.60
2022-12-19T05:37:03.754Z,105.98
2022-12-19T05:38:07.396Z,107.66
2022-12-19T05:39:13.772Z,105.39
2022-12-19T05:40:17.220Z,105.38
2022-12-19T05:41:25.638Z,109.37
2022-12-19T05:42:29.736Z,107.96
2022-12-19T05:43:35.675Z,103.91
2022-12-19T05:44:38.977Z,104.71
2022-12-19T05:45:44.996Z,106.21
2022-12-19T05:46:48.468Z,106.85
2022-12-19T05:47:59.966Z,103.88
2022-12-19T05:49:04.721Z,106.12
2022-12-19T05:50:12.884Z,109.56
2022-12-19T05:51:17.020Z,108.79
2022-12-19T05:52:25.609Z,105.39
2022-12-19T05:53:30.524Z,106.11
2022-12-19T05:54:36.563Z,105.64
2022-12-19T05:55:39.918Z,108.28
2022-12-19T05:56:45.924Z,106.87
2022-12-19T05:57:49.462Z,102.49
2022-12-19T05:58:56.216Z,101.87
2022-12-19T06:00:00.017Z,104.72
2022-12-19T06:01:07.560Z,107.50
2022-12-19T06:02:12.759Z,107.40
2022-12-19T06:03:18.894Z,101.86
2022-12-19T06:04:23.197Z,101.83
2022-12-19T06:05:29.137Z,98.64
2022-12-19T06:06:34.996Z,102.84
2022-12-19T06:07:42.565Z,102.62
2022-12-19T06:08:49.404Z,97.56
2022-12-19T06:09:53.574Z,100.33
2022-12-19T06:11:02.797Z,100.62
2022-12-19T06:12:07.197Z,99.56
2022-12-19T06:13:13.394Z,97.15
2022-12-19T06:14:19.650Z,95.74
2022-12-19T06:15:23.771Z,97.23
2022-12-19T06:16:29.764Z,95.85
2022-12-19T06:17:33.219Z,93.54
2022-12-19T06:18:42.990Z,93.62
2022-12-19T06:19:48.270Z,97.16
2022-12-19T06:21:01.569Z,96.05
2022-12-19T06:22:05.018Z,93.34
2022-12-19T06:23:13.592Z,91.32
2022-12-19T06:24:17.575Z,95.00
2022-12-19T06:25:25.822Z,95.96
2022-12-19T06:26:31.472Z,98.42
2022-12-19T06:27:37.817Z,95.40
2022-12-19T06:28:41.167Z,94.67
2022-12-19T06:29:47.383Z,97.99
2022-12-19T06:30:50.941Z,93.20
2022-12-19T06:31:57.812Z,93.61
2022-12-19T06:33:01.349Z,98.75
2022-12-19T06:34:07.563Z,97.96
2022-12-19T06:35:11.561Z,100.08
2022-12-19T06:36:25.445Z,102.83
2022-12-19T06:37:29.689Z,99.64
2022-12-19T06:38:38.879Z,104.76
2022-12-19T06:39:42.230Z,108.01
2022-12-19T06:41:01.261Z,113.26
2022-12-19T06:42:20.308Z,118.97
2022-12-19T06:43:29.565Z,124.28
2022-12-19T06:44:34.114Z,116.32
2022-12-19T06:45:40.149Z,120.80
2022-12-19T06:46:44.743Z,117.65
2022-12-19T06:47:50.689Z,112.92
2022-12-19T06:48:58.864Z,110.22
2022-12-19T06:50:04.987Z,108.50
2022-12-19T06:51:08.783Z,110.22
2022-12-19T06:52:15.647Z,112.11
2022-12-19T06:53:21.812Z,113.19
2022-12-19T06:54:31.709Z,108.28
2022-12-19T06:55:37.559Z,111.38
2022-12-19T06:56:46.582Z,110.66
2022-12-19T06:57:49.901Z,105.75
2022-12-19T06:58:57.064Z,105.41
2022-12-19T07:00:03.897Z,107.27
2022-12-19T07:01:07.419Z,102.87
2022-12-19T07:02:31.550Z,107.52
2022-12-19T07:03:41.567Z,108.29
2022-12-19T07:04:54.652Z,109.89
2022-12-19T07:05:58.941Z,112.49
2022-12-19T07:07:05.167Z,110.87
2022-12-19T07:08:14.071Z,112.72
2022-12-19T07:09:17.829Z,111.20
2022-12-19T07:10:26.586Z,106.31
2022-12-19T07:11:30.782Z,103.72
2022-12-19T07:12:36.681Z,107.79
2022-12-19T07:13:40.110Z,104.90
2022-12-19T07:14:51.701Z,108.24
2022-12-19T07:16:07.291Z,108.27
2022-12-19T07:17:16.553Z,113.36
2022-12-19T07:18:20.045Z,111.16
2022-12-19T07:19:29.160Z,110.83
2022-12-19T07:20:44.877Z,105.84
2022-12-19T07:21:52.469Z,103.64
2022-12-19T07:22:56.918Z,102.81
2022-12-19T07:24:04.289Z,102.41
2022-12-19T07:25:10.054Z,102.66
2022-12-19T07:26:18.655Z,100.64
2022-12-19T07:27:28.563Z,103.00
2022-12-19T07:28:44.725Z,97.94
2022-12-19T07:29:50.688Z,99.35
2022-12-19T07:30:54.311Z,102.11
2022-12-19T07:32:00.398Z,101.95
2022-12-19T07:33:08.916Z,105.06
2022-12-19T07:34:19.259Z,106.06
2022-12-19T07:35:24.616Z,104.58
2022-12-19T07:36:30.884Z,104.17
2022-12-19T07:37:36.967Z,104.81
2022-12-19T07:38:40.294Z,105.31
2022-12-19T07:39:47.145Z,102.84
2022-12-19T07:40:53.311Z,108.50
2022-12-19T07:42:02.180Z,112.47
2022-12-19T07:43:17.596Z,109.81
2022-12-19T07:44:23.785Z,111.25
2022-12-19T07:45:31.081Z,107.73
2022-12-19T07:46:37.211Z,109.01
2022-12-19T07:47:40.589Z,107.88
2022-12-19T07:48:46.763Z,107.46
2022-12-19T07:49:50.272Z,112.56
2022-12-19T07:50:57.507Z,108.93
2022-12-19T07:52:03.931Z,109.69
2022-12-19T07:53:09.932Z,111.60
2022-12-19T07:54:18.045Z,110.00
2022-12-19T07:55:24.199Z,107.42
2022-12-19T07:56:28.987Z,108.42
2022-12-19T07:57:37.659Z,105.35
2022-12-19T07:58:41.116Z,105.77
2022-12-19T07:59:47.289Z,103.73
2022-12-19T08:00:58.770Z,102.22
2022-12-19T08:02:03.561Z,103.56
2022-12-19T08:03:09.723Z,103.68
2022-12-19T08:04:13.936Z,101.88
2022-12-19T08:05:20.470Z,103.64
2022-12-19T08:06:24.912Z,101.24
2022-12-19T08:07:31.727Z,99.49
2022-12-19T08:08:38.586Z,99.29
2022-12-19T08:09:44.496Z,101.82
2022-12-19T08:10:47.860Z,102.54
2022-12-19T08:11:53.688Z,100.90
2022-12-19T08:13:03.073Z,105.62
2022-12-19T08:14:06.542Z,111.24
2022-12-19T08:15:13.704Z,114.26
2022-12-19T08:16:19.810Z,116.90
2022-12-19T08:17:26.519Z,112.54
2022-12-19T08:18:33.494Z,110.85
2022-12-19T08:19:39.536Z,109.16
2022-12-19T08:20:49.523Z,107.93
2022-12-19T08:21:55.537Z,107.21
2022-12-19T08:23:01.574Z,108.10
2022-12-19T08:24:07.161Z,107.28
2022-12-19T08:25:13.661Z,104.57
2022-12-19T08:26:25.576Z,102.80
2022-12-19T08:27:31.828Z,97.85
2022-12-19T08:28:40.925Z,100.11
2022-12-19T08:29:48.158Z,99.00
2022-12-19T08:30:54.368Z,100.23
2022-12-19T08:32:00.453Z,99.72
2022-12-19T08:33:07.026Z,112.30
2022-12-19T08:34:10.630Z,115.34
2022-12-19T08:35:17.560Z,119.15
2022-12-19T08:36:21.998Z,121.09
2022-12-19T08:37:29.924Z,114.92
2022-12-19T08:38:33.261Z,108.85
2022-12-19T08:39:39.367Z,106.80
2022-12-19T08:40:47.661Z,104.55
2022-12-19T08:41:53.723Z,99.77
2022-12-19T08:42:58.282Z,101.42
2022-12-19T08:44:07.358Z,103.19
2022-12-19T08:45:13.914Z,102.69
2022-12-19T08:46:21.808Z,97.85
2022-12-19T08:47:27.967Z,95.97
2022-12-19T08:48:36.156Z,97.69
2022-12-19T08:49:42.424Z,106.02
2022-12-19T08:50:54.626Z,109.09
2022-12-19T08:52:01.581Z,103.13
2022-12-19T08:53:08.366Z,102.17
2022-12-19T08:54:15.548Z,101.53
2022-12-19T08:55:21.672Z,100.12
2022-12-19T08:56:27.773Z,97.70
2022-12-19T08:57:34.741Z,97.82
2022-12-19T08:58:40.712Z,100.19
2022-12-19T08:59:51.420Z,98.27
2022-12-19T09:01:05.263Z,103.21
2022-12-19T09:02:15.289Z,101.98
2022-12-19T09:03:22.710Z,106.07
2022-12-19T09:06:01.889Z,102.20
2022-12-19T09:06:07.095Z,103.25
2022-12-19T09:07:16.217Z,96.00
2022-12-19T09:08:23.168Z,93.14
2022-12-19T09:09:29.569Z,91.96
2022-12-19T09:10:38.649Z,95.51
2022-12-19T09:11:48.141Z,93.16
2022-12-19T09:12:58.039Z,99.21
2022-12-19T09:14:05.312Z,96.00
2022-12-19T09:15:14.385Z,97.13
2022-12-19T09:16:24.101Z,98.34
2022-12-19T09:17:31.422Z,99.45
2022-12-19T09:18:39.858Z,95.21
2022-12-19T09:19:48.535Z,96.88
2022-12-19T09:20:57.920Z,96.13
2022-12-19T09:22:04.088Z,96.86
2022-12-19T09:23:10.145Z,95.59
2022-12-19T09:24:16.120Z,97.92
2022-12-19T09:25:22.861Z,97.21
2022-12-19T09:26:33.683Z,97.44
2022-12-19T09:28:17.390Z,97.30
2022-12-19T09:29:21.109Z,99.03
2022-12-19T09:30:32.080Z,96.13
2022-12-19T09:31:40.552Z,96.05
2022-12-19T09:32:48.109Z,94.42
2022-12-19T09:33:55.026Z,95.76
2022-12-19T09:35:00.948Z,93.86
2022-12-19T09:36:11.849Z,92.91
2022-12-19T09:37:18.110Z,92.83
2022-12-19T09:38:23.549Z,95.99
2022-12-19T09:39:29.531Z,100.52
2022-12-19T09:40:58.219Z,100.80
2022-12-19T09:42:59.342Z,126.75
2022-12-19T09:44:26.377Z,127.44
2022-12-19T09:45:55.751Z,131.30
2022-12-19T09:47:06.446Z,121.92
2022-12-19T09:48:23.811Z,116.99
2022-12-19T09:49:41.647Z,112.19
2022-12-19T09:51:10.400Z,112.60
2022-12-19T09:52:25.005Z,118.77
2022-12-19T09:53:54.288Z,115.72
2022-12-19T09:55:16.822Z,117.87
2022-12-19T09:56:29.174Z,123.28
2022-12-19T09:57:47.448Z,131.08
2022-12-19T09:59:07.855Z,124.31
2022-12-19T10:00:21.674Z,120.77
2022-12-19T10:01:42.452Z,119.72
2022-12-19T10:02:59.578Z,112.44
2022-12-19T10:04:18.644Z,111.56
2022-12-19T10:06:24.927Z,110.72
2022-12-19T10:07:18.250Z,110.29
2022-12-19T10:08:47.691Z,109.76
2022-12-19T10:12:34.499Z,102.45
2022-12-19T10:12:45.179Z,105.12
2022-12-19T10:13:37.364Z,101.63
2022-12-19T10:15:03.398Z,100.80
2022-12-19T10:16:22.523Z,98.41
2022-12-19T10:18:01.130Z,95.58
2022-12-19T10:19:12.293Z,97.46
2022-12-19T10:20:32.785Z,93.53
2022-12-19T10:22:17.805Z,94.71
2022-12-19T10:24:19.035Z,92.08
2022-12-19T10:25:57.702Z,94.07
2022-12-19T10:27:16.346Z,91.03
2022-12-19T10:28:58.622Z,90.04
2022-12-19T10:30:17.309Z,89.50
2022-12-19T10:31:35.991Z,89.25
2022-12-19T10:33:07.085Z,89.60
2022-12-19T10:34:25.394Z,91.29
2022-12-19T10:35:37.723Z,90.41
2022-12-19T10:38:34.329Z,93.48
2022-12-19T10:40:00.650Z,96.67
2022-12-19T10:41:19.881Z,94.91
2022-12-19T10:42:39.577Z,96.89
2022-12-19T10:44:06.108Z,95.22
2022-12-19T10:45:19.689Z,92.14
2022-12-19T10:46:41.136Z,96.14
2022-12-19T10:47:50.887Z,98.92
2022-12-19T10:48:57.914Z,101.83
2022-12-19T10:50:09.222Z,109.52
2022-12-19T10:51:25.936Z,111.50
2022-12-19T10:52:57.002Z,111.06
2022-12-19T10:54:04.349Z,112.15
2022-12-19T10:55:40.782Z,106.70
2022-12-19T10:56:46.933Z,113.35
2022-12-19T10:57:50.200Z,115.67
2022-12-19T10:58:59.133Z,123.44
2022-12-19T11:00:20.385Z,122.94
2022-12-19T11:01:30.362Z,117.75
2022-12-19T11:02:51.966Z,116.96
2022-12-19T11:04:25.357Z,114.33
2022-12-19T11:05:47.366Z,111.63
2022-12-19T11:07:20.762Z,112.52
2022-12-19T11:08:31.053Z,115.81
2022-12-19T11:09:46.775Z,115.63
2022-12-19T11:13:15.490Z,110.93
2022-12-19T11:17:15.807Z,108.90
2022-12-19T11:18:47.125Z,109.68
2022-12-19T11:20:24.717Z,108.58
2022-12-19T11:27:46.450Z,110.08
2022-12-19T11:28:15.652Z,113.42
2022-12-19T11:29:25.414Z,110.67
2022-12-19T11:29:30.352Z,112.38
2022-12-19T11:29:37.047Z,107.65
2022-12-19T11:30:46.255Z,110.63
2022-12-19T11:30:47.658Z,109.13
2022-12-19T11:31:27.998Z,111.49
2022-12-19T11:31:46.584Z,108.40
2022-12-19T11:32:42.298Z,111.44
2022-12-19T11:33:50.764Z,109.84
2022-12-19T11:35:05.489Z,106.74
2022-12-19T11:36:31.856Z,109.80
2022-12-19T11:37:53.886Z,111.77
2022-12-19T11:39:03.408Z,109.78
2022-12-19T11:40:22.360Z,111.00
2022-12-19T11:41:43.943Z,110.97
2022-12-19T11:43:42.089Z,110.01
2022-12-19T11:44:39.310Z,110.58
2022-12-19T11:46:01.549Z,111.51
2022-12-19T11:47:27.899Z,112.52
2022-12-19T11:48:44.256Z,114.76
2022-12-19T11:50:06.302Z,118.45
2022-12-19T11:51:30.137Z,120.05
2022-12-19T11:53:03.964Z,121.80
2022-12-19T11:54:23.677Z,118.70
2022-12-19T11:55:45.168Z,117.14
2022-12-19T11:56:52.259Z,122.77
2022-12-19T11:57:58.917Z,115.23
2022-12-19T11:59:18.173Z,112.62
2022-12-19T12:00:28.840Z,114.76
2022-12-19T12:02:02.628Z,113.60
2022-12-19T12:03:49.534Z,117.42
2022-12-19T12:05:44.914Z,114.02
2022-12-19T12:06:57.785Z,117.36
2022-12-19T12:10:14.470Z,113.96
2022-12-19T12:13:43.574Z,116.74
2022-12-19T12:22:35.653Z,118.47
2022-12-19T12:22:42.147Z,115.18
2022-12-19T12:26:51.559Z,118.08
2022-12-19T12:30:46.866Z,116.90
2022-12-19T12:31:10.063Z,119.16
2022-12-19T12:31:14.691Z,120.19
2022-12-19T12:31:17.766Z,118.79
2022-12-19T12:31:44.385Z,120.82
2022-12-19T12:31:44.393Z,124.52
2022-12-19T12:32:03.005Z,124.62
2022-12-19T12:32:03.523Z,115.10
2022-12-19T12:35:13.681Z,122.22
2022-12-19T12:35:40.781Z,121.51
2022-12-19T12:39:07.212Z,125.39
2022-12-19T12:41:01.470Z,127.06
2022-12-19T12:42:33.796Z,129.94
2022-12-19T12:44:07.996Z,135.03
2022-12-19T12:45:26.213Z,136.04
2022-12-19T12:46:42.236Z,139.41
2022-12-19T12:47:55.050Z,139.97
2022-12-19T12:49:04.823Z,138.07
2022-12-19T12:50:20.236Z,137.95
2022-12-19T12:51:30.100Z,143.64
2022-12-19T12:52:46.161Z,145.96
2022-12-19T12:54:07.881Z,147.95
2022-12-19T12:55:27.660Z,143.37
2022-12-19T12:56:35.626Z,157.14
2022-12-19T12:57:42.268Z,158.83
2022-12-19T12:59:24.140Z,149.42
2022-12-19T13:00:33.997Z,149.62
2022-12-19T13:01:41.424Z,146.36
2022-12-19T13:02:53.620Z,149.98
2022-12-19T13:04:05.168Z,147.88
2022-12-19T13:05:39.947Z,148.94
2022-12-19T13:07:30.334Z,147.33
2022-12-19T13:08:50.640Z,151.84
2022-12-19T13:10:20.055Z,148.21
2022-12-19T13:11:56.302Z,150.86
2022-12-19T13:13:14.972Z,149.88
2022-12-19T13:14:51.827Z,153.83
2022-12-19T13:15:57.874Z,151.86
2022-12-19T13:17:05.745Z,153.05
2022-12-19T13:18:42.353Z,162.11
2022-12-19T13:19:56.891Z,159.45
2022-12-19T13:21:06.851Z,163.33
2022-12-19T13:22:42.539Z,166.94
2022-12-19T13:23:52.550Z,167.42
2022-12-19T13:25:01.539Z,169.00
2022-12-19T13:26:26.208Z,165.33
2022-12-19T13:27:42.825Z,161.75
2022-12-19T13:28:47.103Z,150.24
2022-12-19T13:30:08.214Z,153.20
2022-12-19T13:31:26.473Z,158.00
2022-12-19T13:32:58.078Z,166.40
2022-12-19T13:34:22.377Z,159.84
2022-12-19T13:37:42.407Z,162.17
2022-12-19T13:39:59.352Z,157.05
2022-12-19T13:39:59.625Z,149.83
2022-12-19T13:40:37.375Z,148.76
2022-12-19T13:41:58.430Z,150.82
2022-12-19T13:43:33.635Z,160.22
2022-12-19T13:44:45.404Z,174.04
2022-12-19T13:45:57.367Z,169.03
2022-12-19T13:47:03.562Z,171.75
2022-12-19T13:48:23.898Z,188.33
2022-12-19T13:49:36.592Z,195.32
2022-12-19T13:50:43.588Z,190.95
2022-12-19T13:51:57.225Z,178.87
2022-12-19T13:53:03.777Z,175.78
2022-12-19T13:54:29.168Z,175.52
2022-12-19T13:55:43.032Z,167.74
2022-12-19T13:56:49.839Z,163.82
2022-12-19T13:58:00.604Z,165.00
2022-12-19T13:59:09.025Z,163.87
2022-12-19T14:00:24.559Z,169.20
2022-12-19T14:01:32.194Z,164.13
2022-12-19T14:02:51.850Z,164.22
2022-12-19T14:04:02.649Z,164.46
2022-12-19T14:06:14.308Z,167.47
2022-12-19T14:07:04.301Z,168.79
2022-12-19T14:08:18.218Z,165.79
2022-12-19T14:11:28.720Z,173.07
2022-12-19T14:11:33.971Z,191.69
2022-12-19T14:13:43.271Z,194.22
2022-12-19T14:14:33.416Z,196.43
2022-12-19T14:15:42.571Z,190.32
2022-12-19T14:16:49.953Z,192.59
2022-12-19T14:17:56.073Z,187.10
2022-12-19T14:19:30.189Z,185.41
2022-12-19T14:22:11.380Z,182.31
2022-12-19T14:22:20.713Z,179.54
2022-12-19T14:23:42.889Z,178.10
2022-12-19T14:25:52.368Z,179.40
2022-12-19T14:28:23.444Z,181.38
2022-12-19T14:28:24.713Z,173.27
2022-12-19T14:30:28.908Z,179.84
2022-12-19T14:31:20.592Z,178.43
2022-12-19T14:33:44.566Z,184.76
2022-12-19T14:34:27.088Z,185.19
2022-12-19T14:36:06.398Z,188.93
2022-12-19T14:37:03.533Z,200.66
2022-12-19T14:39:20.703Z,201.48
2022-12-19T14:39:44.129Z,214.02
2022-12-19T14:41:07.387Z,198.45
2022-12-19T14:43:39.465Z,191.07
2022-12-19T14:52:11.526Z,170.36
2022-12-19T14:52:50.878Z,183.97
2022-12-19T14:53:52.730Z,194.05
2022-12-19T14:54:01.422Z,196.14
2022-12-19T14:54:23.043Z,206.38
2022-12-19T14:54:25.523Z,198.46
2022-12-19T14:54:37.733Z,207.27
2022-12-19T14:56:16.054Z,202.73
2022-12-19T14:57:03.914Z,201.98
2022-12-19T14:58:53.315Z,189.74
2022-12-19T14:59:46.362Z,184.26
2022-12-19T15:01:09.286Z,183.49
2022-12-19T15:02:30.642Z,180.26
2022-12-19T15:04:50.555Z,183.19
2022-12-19T15:05:24.276Z,181.36
2022-12-19T15:07:07.863Z,186.32
2022-12-19T15:08:04.457Z,183.25
2022-12-19T15:10:58.387Z,183.00
2022-12-19T15:11:05.268Z,179.13
2022-12-19T15:14:48.564Z,207.70
2022-12-19T15:14:56.319Z,219.55
2022-12-19T15:15:46.303Z,219.90
2022-12-19T15:17:06.162Z,222.85
2022-12-19T15:18:28.897Z,226.38
2022-12-19T15:19:35.375Z,218.30
2022-12-19T15:20:42.131Z,205.69
2022-12-19T15:21:49.508Z,198.66
2022-12-19T15:22:55.582Z,177.74
2022-12-19T15:24:02.526Z,176.66
2022-12-19T15:25:17.516Z,196.90
2022-12-19T15:26:49.133Z,204.41
2022-12-19T15:27:58.330Z,193.10
2022-12-19T15:29:19.891Z,199.12
2022-12-19T15:30:35.000Z,249.53
2022-12-19T15:31:44.199Z,240.53
2022-12-19T15:32:51.499Z,267.79
2022-12-19T15:35:22.769Z,234.24
2022-12-19T15:36:26.371Z,241.31
2022-12-19T15:37:32.448Z,247.51
2022-12-19T15:38:35.995Z,234.22
2022-12-19T15:39:42.368Z,250.68
2022-12-19T15:40:49.576Z,268.86
2022-12-19T15:41:59.363Z,286.19
2022-12-19T15:43:23.765Z,289.55
2022-12-19T15:44:39.657Z,287.94
2022-12-19T15:45:45.921Z,292.26